createdAt,value
2023-08-12T00:00:29.922Z,985.55
2023-08-12T00:12:30.415Z,985.54
2023-08-12T00:24:30.849Z,985.44
2023-08-12T00:36:31.319Z,985.26
2023-08-12T00:48:32.188Z,985.20
2023-08-12T01:00:32.246Z,985.11
2023-08-12T01:12:32.649Z,985.25
2023-08-12T01:24:33.107Z,985.24
2023-08-12T01:36:33.623Z,985.21
2023-08-12T01:48:34.040Z,985.20
2023-08-12T02:00:34.514Z,985.14
2023-08-12T02:12:34.972Z,985.07
2023-08-12T02:24:35.385Z,985.06
2023-08-12T02:36:35.846Z,985.03
2023-08-12T02:48:36.287Z,985.17
2023-08-12T03:00:36.737Z,985.17
2023-08-12T03:12:37.240Z,985.12
2023-08-12T03:24:37.655Z,985.02
2023-08-12T03:36:38.105Z,985.22
2023-08-12T03:48:38.559Z,985.22
2023-08-12T04:00:39.060Z,985.14
2023-08-12T04:12:39.486Z,985.10
2023-08-12T04:24:39.951Z,985.23
2023-08-12T04:36:42.539Z,985.21
2023-08-12T04:48:40.848Z,985.19
2023-08-12T05:00:41.301Z,985.30
2023-08-12T05:12:41.727Z,985.41
2023-08-12T05:24:42.183Z,985.29
2023-08-12T05:36:42.633Z,985.32
2023-08-12T05:48:43.099Z,985.26
2023-08-12T06:00:43.564Z,985.21
2023-08-12T06:12:44.029Z,985.06
2023-08-12T06:24:44.523Z,984.92
2023-08-12T06:36:44.929Z,984.83
2023-08-12T06:48:45.406Z,984.67
2023-08-12T07:00:45.826Z,984.73
2023-08-12T07:12:46.276Z,984.78
2023-08-12T07:24:46.743Z,984.71
2023-08-12T07:36:47.202Z,984.71
2023-08-12T07:48:47.634Z,984.70
2023-08-12T08:00:48.087Z,984.61
2023-08-12T08:12:48.573Z,984.59
2023-08-12T08:24:49.017Z,984.56
2023-08-12T08:36:50.365Z,984.56
2023-08-12T08:48:49.918Z,984.54
2023-08-12T09:00:50.418Z,984.54
2023-08-12T09:12:50.839Z,984.64
2023-08-12T09:24:51.319Z,984.59
2023-08-12T09:36:51.908Z,984.58
2023-08-12T09:48:52.222Z,984.45
2023-08-12T10:00:52.696Z,984.50
2023-08-12T10:12:53.142Z,984.32
2023-08-12T10:24:53.555Z,984.26
2023-08-12T10:37:01.952Z,984.30
2023-08-12T10:48:54.462Z,984.03
2023-08-12T11:00:54.934Z,984.09
2023-08-12T11:12:55.412Z,983.86
2023-08-12T11:24:55.831Z,983.83
2023-08-12T11:36:56.289Z,983.71
2023-08-12T11:48:56.798Z,983.60
2023-08-12T12:00:57.257Z,983.43
2023-08-12T12:12:57.710Z,983.42
2023-08-12T12:24:58.125Z,983.32
2023-08-12T12:36:58.657Z,983.25
2023-08-12T12:48:59.172Z,983.14
2023-08-12T13:00:59.816Z,983.14
2023-08-12T13:13:00.259Z,983.03
2023-08-12T13:25:00.678Z,982.95
2023-08-12T13:37:00.883Z,982.77
2023-08-12T13:49:01.362Z,982.78
2023-08-12T14:01:01.837Z,982.57
2023-08-12T14:13:02.249Z,982.49
2023-08-12T14:25:04.544Z,982.47
2023-08-12T14:37:03.195Z,982.39
2023-08-12T14:49:03.617Z,982.32
2023-08-12T15:01:04.190Z,982.29
2023-08-12T15:13:04.533Z,982.06
2023-08-12T15:25:05.034Z,981.97
2023-08-12T15:37:05.475Z,981.83
2023-08-12T15:49:05.888Z,981.87
2023-08-12T16:01:06.374Z,981.83
2023-08-12T16:13:06.912Z,981.77
2023-08-12T16:25:07.340Z,981.58
2023-08-12T16:49:08.244Z,981.60
2023-08-12T17:01:08.788Z,981.53
2023-08-12T17:13:09.141Z,981.53
2023-08-12T17:25:09.564Z,981.58
2023-08-12T17:37:10.039Z,981.46
2023-08-12T17:49:10.524Z,981.46
2023-08-12T18:01:11.000Z,981.50
2023-08-12T18:13:11.493Z,981.66
2023-08-12T18:25:11.842Z,981.79
2023-08-12T18:37:12.334Z,981.74
2023-08-12T18:49:12.753Z,981.87
2023-08-12T19:01:13.242Z,982.02
2023-08-12T19:13:13.716Z,982.00
2023-08-12T19:25:14.170Z,982.05
2023-08-12T19:37:14.658Z,982.22
2023-08-12T19:49:15.048Z,982.37
2023-08-12T20:01:15.756Z,982.31
2023-08-12T20:13:16.138Z,982.22
2023-08-12T20:25:16.747Z,982.30
2023-08-12T20:37:16.985Z,982.46
2023-08-12T20:49:17.317Z,982.38
2023-08-12T21:01:17.855Z,982.23
2023-08-12T21:13:18.235Z,982.27
2023-08-12T21:25:18.729Z,982.27
2023-08-12T21:37:19.146Z,982.28
2023-08-12T21:49:19.609Z,982.29
2023-08-12T22:01:20.168Z,982.06
2023-08-12T22:13:20.543Z,981.98
2023-08-12T22:25:20.992Z,982.04
2023-08-12T22:37:21.422Z,981.86
2023-08-12T22:49:21.865Z,981.92
2023-08-12T23:01:22.384Z,981.81
2023-08-12T23:13:22.812Z,981.77
2023-08-12T23:25:23.258Z,981.98
2023-08-12T23:37:23.682Z,981.93
2023-08-12T23:49:24.136Z,981.79
